Time;durP1;ratioP1;P1;durP2;ratioP2;P2;SDS_P1;SDS_P2;PMS_P1;PMS_P2;Temp;Humidity;BMP_temperature;BMP_pressure;BME280_temperature;BME280_humidity;BME280_pressure;Samples;Min_cycle;Max_cycle;Signal;HPM_P1;HPM_P2
2021/03/02 00:00:38;;;;;;;1.87;1.60;;;;;;;2.62;100.00;97097.28;5030677;28;20194;-84
2021/03/02 00:03:08;;;;;;;2.17;1.93;;;;;;;2.73;100.00;97101.84;5030031;28;20282;-84
2021/03/02 00:05:35;;;;;;;2.03;1.83;;;;;;;2.64;100.00;97073.84;5030772;28;20210;-84
2021/03/02 00:08:02;;;;;;;1.90;1.73;;;;;;;2.80;100.00;97072.00;5029924;28;20242;-84
2021/03/02 00:10:39;;;;;;;1.77;1.40;;;;;;;2.66;100.00;97093.56;5030602;28;20176;-84
2021/03/02 00:13:06;;;;;;;1.53;1.43;;;;;;;2.64;100.00;97081.63;5030455;28;20247;-84
2021/03/02 00:15:33;;;;;;;1.77;1.67;;;;;;;2.56;100.00;97064.75;5031162;28;20620;-84
2021/03/02 00:18:01;;;;;;;1.60;1.50;;;;;;;2.50;100.00;97025.34;5030651;28;20248;-84
2021/03/02 00:20:30;;;;;;;1.30;1.20;;;;;;;2.51;100.00;97017.44;5030538;28;20195;-84
2021/03/02 00:23:07;;;;;;;2.17;1.67;;;;;;;2.62;100.00;97011.63;5029871;28;20195;-85
2021/03/02 00:25:40;;;;;;;1.37;1.27;;;;;;;2.58;100.00;97016.16;5030583;28;20187;-84
2021/03/02 00:28:09;;;;;;;1.30;1.20;;;;;;;2.50;100.00;97014.97;5030838;28;20247;-84
2021/03/02 00:30:37;;;;;;;1.50;1.40;;;;;;;2.55;100.00;97011.16;5030208;28;20647;-84
2021/03/02 00:33:06;;;;;;;2.10;1.50;;;;;;;2.51;100.00;97014.84;5029943;28;20231;-84
2021/03/02 00:35:34;;;;;;;1.53;1.43;;;;;;;2.72;100.00;96989.38;5030331;28;20282;-84
2021/03/02 00:38:01;;;;;;;1.80;1.67;;;;;;;2.65;100.00;97023.59;5029423;28;20195;-83
2021/03/02 00:40:28;;;;;;;1.60;1.50;;;;;;;2.53;100.00;97020.81;5029203;28;20210;-83
2021/03/02 00:42:59;;;;;;;1.47;1.30;;;;;;;2.45;100.00;96978.88;5029732;28;20470;-84
2021/03/02 00:45:26;;;;;;;1.30;1.27;;;;;;;2.42;100.00;96966.09;5030167;28;20816;-84
2021/03/02 00:47:54;;;;;;;1.53;1.43;;;;;;;2.50;100.00;96958.72;5030229;28;20199;-84
2021/03/02 00:50:29;;;;;;;1.40;1.30;;;;;;;2.35;100.00;96959.59;5030140;28;20653;-84
2021/03/02 00:52:56;;;;;;;1.77;1.67;;;;;;;2.38;100.00;96925.69;5030078;28;20235;-84
2021/03/02 00:55:26;;;;;;;1.93;1.50;;;;;;;2.38;100.00;96903.19;5030025;28;20728;-84
2021/03/02 00:57:56;;;;;;;1.67;1.57;;;;;;;2.48;100.00;96910.41;5029782;28;20699;-84
2021/03/02 01:00:25;;;;;;;2.03;1.70;;;;;;;2.43;100.00;96920.25;5029994;28;20297;-84
2021/03/02 01:02:52;;;;;;;1.40;1.30;;;;;;;2.35;100.00;96907.72;5029688;28;20232;-84
2021/03/02 01:05:19;;;;;;;1.87;1.77;;;;;;;2.38;100.00;96910.13;5029693;28;20257;-84
2021/03/02 01:07:45;;;;;;;2.43;1.90;;;;;;;2.51;100.00;96912.84;5029795;28;20351;-84
2021/03/02 01:10:14;;;;;;;1.77;1.60;;;;;;;2.34;100.00;96927.66;5029396;28;20317;-84
2021/03/02 01:12:43;;;;;;;1.67;1.50;;;;;;;2.46;100.00;96900.16;5029585;28;20766;-84
2021/03/02 01:15:11;;;;;;;1.57;1.47;;;;;;;2.32;100.00;96926.91;5028620;28;20241;-84
2021/03/02 01:17:39;;;;;;;2.20;2.00;;;;;;;2.39;100.00;96904.03;5029927;28;20581;-84
2021/03/02 01:20:07;;;;;;;2.03;1.83;;;;;;;2.61;100.00;96919.97;5029762;28;20287;-84
2021/03/02 01:22:34;;;;;;;2.23;2.03;;;;;;;2.38;100.00;96942.09;5029769;28;20220;-84
2021/03/02 01:25:09;;;;;;;2.23;2.03;;;;;;;2.69;100.00;96923.84;5029616;28;20282;-84
2021/03/02 01:27:39;;;;;;;2.17;2.00;;;;;;;2.34;100.00;96950.16;5029638;28;20736;-84
2021/03/02 01:30:14;;;;;;;3.10;1.87;;;;;;;2.36;100.00;96940.53;5029527;28;20203;-84
2021/03/02 01:32:42;;;;;;;2.20;2.00;;;;;;;2.45;100.00;96960.72;5029525;28;20217;-85
2021/03/02 01:35:11;;;;;;;2.13;2.00;;;;;;;2.52;100.00;96962.03;5029610;28;20213;-84
2021/03/02 01:37:40;;;;;;;2.90;2.30;;;;;;;2.52;100.00;96998.34;5028920;28;20245;-84
2021/03/02 01:40:10;;;;;;;2.10;1.90;;;;;;;2.65;100.00;97019.22;5029401;28;20271;-85
2021/03/02 01:42:37;;;;;;;2.67;2.43;;;;;;;2.72;100.00;97076.81;5029227;28;20202;-84
2021/03/02 01:47:39;;;;;;;2.23;1.87;;;;;;;2.46;100.00;97083.50;5067507;22;20241;-84
2021/03/02 01:50:13;;;;;;;2.60;2.03;;;;;;;2.64;100.00;97099.78;5032397;28;20281;-85
2021/03/02 01:52:40;;;;;;;2.47;2.03;;;;;;;2.65;100.00;97097.09;5031243;28;20309;-85
2021/03/02 01:55:08;;;;;;;4.07;2.30;;;;;;;2.47;100.00;97127.53;5032026;28;20213;-85
2021/03/02 01:57:38;;;;;;;2.93;2.40;;;;;;;2.63;100.00;97104.13;5031796;28;20710;-85
2021/03/02 02:00:10;;;;;;;2.37;2.13;;;;;;;2.66;100.00;97116.09;5032728;28;20210;-84
2021/03/02 02:02:43;;;;;;;2.10;1.90;;;;;;;2.60;100.00;97141.50;5031668;28;20731;-84
2021/03/02 02:05:15;;;;;;;1.90;1.80;;;;;;;2.74;100.00;97148.47;5031846;28;20237;-85
2021/03/02 02:07:44;;;;;;;2.23;1.60;;;;;;;2.58;100.00;97184.84;5031593;28;20275;-84
2021/03/02 02:10:17;;;;;;;2.43;1.83;;;;;;;2.67;100.00;97182.66;5031839;28;20226;-84
2021/03/02 02:12:49;;;;;;;1.80;1.70;;;;;;;2.59;100.00;97186.50;5031647;28;20264;-84
2021/03/02 02:15:20;;;;;;;1.83;1.73;;;;;;;2.38;100.00;97190.31;5031643;28;20273;-85
2021/03/02 02:17:52;;;;;;;2.00;1.63;;;;;;;2.32;100.00;97178.56;5032032;28;20674;-84
2021/03/02 02:20:28;;;;;;;2.50;2.00;;;;;;;2.33;100.00;97171.59;5031794;28;20191;-85
2021/03/02 02:23:07;;;;;;;2.43;1.80;;;;;;;2.31;100.00;97182.03;5031269;28;20246;-84
2021/03/02 02:25:46;;;;;;;3.20;1.73;;;;;;;2.32;100.00;97188.06;5031561;28;20277;-85
2021/03/02 02:28:16;;;;;;;1.70;1.60;;;;;;;2.28;100.00;97197.78;5035880;28;20269;-85
2021/03/02 02:30:47;;;;;;;1.93;1.83;;;;;;;2.32;100.00;97198.44;5035742;28;20209;-86
2021/03/02 02:33:14;;;;;;;3.27;2.97;;;;;;;2.28;100.00;97212.50;5035731;28;20259;-84
2021/03/02 02:35:44;;;;;;;2.77;2.57;;;;;;;2.15;100.00;97212.34;5035584;28;20670;-85
2021/03/02 02:38:16;;;;;;;4.07;2.53;;;;;;;2.14;100.00;97208.91;5035140;28;20241;-85
2021/03/02 02:40:54;;;;;;;3.73;2.40;;;;;;;2.26;100.00;97212.59;5035292;28;20252;-86
2021/03/02 02:43:22;;;;;;;2.97;2.53;;;;;;;2.36;100.00;97224.16;5035624;28;20579;-85
2021/03/02 02:45:51;;;;;;;2.70;2.00;;;;;;;2.32;100.00;97237.34;5035282;28;20324;-85
2021/03/02 02:48:19;;;;;;;3.00;2.40;;;;;;;2.29;100.00;97238.38;5035283;28;20640;-85
2021/03/02 02:50:51;;;;;;;4.83;2.30;;;;;;;2.47;100.00;97236.53;5035485;28;20579;-84
2021/03/02 02:53:19;;;;;;;3.13;2.03;;;;;;;2.40;100.00;97258.53;5035094;28;20714;-85
2021/03/02 02:55:48;;;;;;;2.13;1.93;;;;;;;2.38;100.00;97258.59;5034918;28;20249;-85
2021/03/02 02:58:17;;;;;;;2.80;2.33;;;;;;;2.16;100.00;97249.50;5034679;28;20294;-85
2021/03/02 03:00:57;;;;;;;2.33;2.13;;;;;;;2.05;100.00;97237.94;5034869;28;20238;-85
2021/03/02 03:03:27;;;;;;;2.30;2.10;;;;;;;2.06;100.00;97225.81;5035048;28;20194;-84
2021/03/02 03:05:58;;;;;;;2.80;2.60;;;;;;;2.06;100.00;97215.44;5035174;28;20190;-85
2021/03/02 03:08:33;;;;;;;2.20;2.00;;;;;;;2.24;100.00;97217.03;5034997;28;20281;-84
2021/03/02 03:11:02;;;;;;;3.90;2.57;;;;;;;2.16;100.00;97228.75;5035178;28;20202;-85
2021/03/02 03:13:37;;;;;;;2.57;2.23;;;;;;;1.98;100.00;97223.63;5035165;28;20230;-84
2021/03/02 03:16:09;;;;;;;2.83;2.63;;;;;;;2.10;100.00;97210.00;5034864;28;20205;-85
2021/03/02 03:18:44;;;;;;;3.10;2.80;;;;;;;1.99;100.00;97207.16;5034396;28;20199;-85
2021/03/02 03:21:13;;;;;;;2.37;2.17;;;;;;;2.05;100.00;97199.06;5034834;28;20261;-85
2021/03/02 03:23:41;;;;;;;2.33;2.10;;;;;;;2.09;100.00;97197.97;5034508;28;20198;-85
2021/03/02 03:26:11;;;;;;;2.80;2.60;;;;;;;2.06;100.00;97207.66;5034733;28;20202;-85
2021/03/02 03:28:41;;;;;;;2.27;2.07;;;;;;;2.19;100.00;97207.84;5034298;28;20203;-84
2021/03/02 03:31:13;;;;;;;2.87;2.33;;;;;;;2.13;100.00;97214.19;5034386;28;20293;-85
2021/03/02 03:33:41;;;;;;;4.00;2.37;;;;;;;2.12;100.00;97212.53;5034317;28;20222;-84
2021/03/02 03:36:18;;;;;;;2.60;2.17;;;;;;;2.16;100.00;97213.19;5034505;28;20202;-85
2021/03/02 03:38:44;;;;;;;2.13;1.93;;;;;;;2.33;100.00;97219.13;5033282;28;20237;-85
2021/03/02 03:41:14;;;;;;;2.47;2.27;;;;;;;2.29;100.00;97235.78;5034548;28;20208;-85
2021/03/02 03:43:41;;;;;;;2.63;2.43;;;;;;;2.31;100.00;97238.28;5033977;28;20198;-86
2021/03/02 03:46:11;;;;;;;2.60;2.10;;;;;;;2.26;100.00;97246.31;5034087;28;20261;-85
2021/03/02 03:48:38;;;;;;;3.37;3.07;;;;;;;2.32;100.00;97239.94;5034489;28;20202;-85
2021/03/02 03:51:08;;;;;;;3.17;2.60;;;;;;;2.32;100.00;97238.22;5034202;28;20667;-84
2021/03/02 03:53:39;;;;;;;2.63;2.33;;;;;;;2.28;100.00;97238.44;5033863;28;20237;-84
2021/03/02 03:56:07;;;;;;;2.57;2.37;;;;;;;2.20;100.00;97256.19;5034137;28;20277;-84
2021/03/02 03:58:38;;;;;;;2.97;2.53;;;;;;;2.19;100.00;97249.34;5034022;28;20198;-84
2021/03/02 04:01:06;;;;;;;2.63;2.43;;;;;;;2.22;100.00;97254.34;5033986;28;20199;-85
2021/03/02 04:03:37;;;;;;;2.50;2.30;;;;;;;2.20;100.00;97243.22;5033752;28;20683;-84
2021/03/02 04:06:08;;;;;;;2.20;2.00;;;;;;;2.25;100.00;97246.38;5033837;28;20198;-85
2021/03/02 04:08:35;;;;;;;2.13;2.03;;;;;;;2.23;100.00;97251.69;5033537;28;20667;-84
2021/03/02 04:11:02;;;;;;;2.33;2.13;;;;;;;2.19;100.00;97270.91;5033796;28;20278;-85
2021/03/02 04:13:32;;;;;;;2.27;2.07;;;;;;;2.04;100.00;97254.41;5033509;28;20229;-84
2021/03/02 04:15:59;;;;;;;2.23;2.07;;;;;;;1.95;100.00;97244.53;5033582;28;20199;-84
2021/03/02 04:18:30;;;;;;;3.20;2.90;;;;;;;1.96;100.00;97240.19;5033540;28;20238;-84
2021/03/02 04:20:59;;;;;;;3.93;2.40;;;;;;;2.18;100.00;97232.91;5033625;28;20234;-84
2021/03/02 04:23:26;;;;;;;6.27;4.50;;;;;;;2.06;100.00;97257.75;5033583;28;20656;-85
2021/03/02 04:25:59;;;;;;;5.33;4.30;;;;;;;2.17;100.00;97253.75;5033727;28;20282;-84
2021/03/02 04:28:26;;;;;;;3.40;3.10;;;;;;;2.25;100.00;97264.53;5033125;28;20203;-83
2021/03/02 04:30:52;;;;;;;2.33;2.13;;;;;;;2.23;100.00;97297.53;5032534;28;20195;-85
2021/03/02 04:33:19;;;;;;;4.43;2.50;;;;;;;2.11;100.00;97305.06;5033526;28;20608;-84
2021/03/02 04:35:46;;;;;;;2.60;2.40;;;;;;;2.06;100.00;97290.63;5033441;28;20191;-84
2021/03/02 04:38:14;;;;;;;2.90;2.60;;;;;;;2.09;100.00;97267.97;5033134;28;20202;-84
2021/03/02 04:40:41;;;;;;;12.27;9.80;;;;;;;2.03;100.00;97281.25;5033502;28;20697;-84
2021/03/02 04:43:09;;;;;;;16.53;10.17;;;;;;;2.06;100.00;97273.31;5034006;28;20336;-84
2021/03/02 04:45:36;;;;;;;8.17;5.30;;;;;;;2.04;100.00;97269.97;5033094;28;20659;-84
2021/03/02 04:48:04;;;;;;;5.77;4.90;;;;;;;2.04;100.00;97262.19;5032927;28;20643;-84
2021/03/02 04:50:31;;;;;;;5.90;5.30;;;;;;;1.80;100.00;97253.09;5031795;28;20294;-84
2021/03/02 04:52:58;;;;;;;5.00;3.80;;;;;;;1.95;100.00;97233.34;5032901;28;20380;-84
2021/03/02 04:55:25;;;;;;;5.53;4.67;;;;;;;1.93;100.00;97237.75;5032651;28;20194;-84
2021/03/02 04:57:52;;;;;;;4.33;3.70;;;;;;;1.91;100.00;97253.41;5012921;28;20295;-83
2021/03/02 05:00:31;;;;;;;3.67;3.13;;;;;;;1.91;100.00;97258.59;5012599;28;20195;-86
2021/03/02 05:03:10;;;;;;;3.37;3.10;;;;;;;2.09;100.00;97275.75;5013329;28;20282;-87
2021/03/02 05:05:37;;;;;;;9.70;4.63;;;;;;;1.93;100.00;97277.47;5013996;28;20204;-86
2021/03/02 05:08:04;;;;;;;8.10;5.33;;;;;;;1.98;100.00;97265.13;5013166;28;20669;-86
2021/03/02 05:10:32;;;;;;;8.63;6.23;;;;;;;2.07;100.00;97251.66;5012937;28;20192;-87
2021/03/02 05:13:02;;;;;;;6.10;4.77;;;;;;;2.04;100.00;97264.78;5013138;28;20227;-87
2021/03/02 05:15:41;;;;;;;4.03;3.63;;;;;;;1.88;100.00;97272.53;5013136;28;20227;-86
2021/03/02 05:18:08;;;;;;;4.47;3.20;;;;;;;1.92;100.00;97249.88;5013016;28;20267;-86
2021/03/02 05:20:35;;;;;;;5.63;3.40;;;;;;;1.96;100.00;97243.63;5012921;28;20204;-86
2021/03/02 05:23:02;;;;;;;4.53;3.00;;;;;;;2.05;100.00;97237.13;5012498;28;20213;-86
2021/03/02 05:25:28;;;;;;;4.40;3.60;;;;;;;2.08;100.00;97240.38;5012806;28;20196;-86
2021/03/02 05:27:56;;;;;;;15.83;9.40;;;;;;;1.98;100.00;97249.56;5012849;28;20200;-88
2021/03/02 05:30:24;;;;;;;5.77;5.20;;;;;;;1.98;100.00;97244.38;5013177;28;20199;-86
2021/03/02 05:32:50;;;;;;;3.57;3.23;;;;;;;2.10;100.00;97241.13;5012849;28;20203;-87
2021/03/02 05:35:17;;;;;;;3.27;3.00;;;;;;;2.22;100.00;97243.97;5012886;28;20253;-86
2021/03/02 05:37:44;;;;;;;5.87;4.20;;;;;;;2.07;100.00;97281.94;5033021;28;20245;-88
2021/03/02 05:40:12;;;;;;;10.17;8.70;;;;;;;1.96;100.00;97277.31;5033188;28;20210;-88
2021/03/02 05:42:39;;;;;;;9.47;8.47;;;;;;;2.00;100.00;97263.28;5032736;28;20198;-88
2021/03/02 05:45:08;;;;;;;8.40;7.53;;;;;;;2.30;100.00;97262.56;5032562;28;20194;-88
2021/03/02 05:47:36;;;;;;;6.07;4.87;;;;;;;2.22;100.00;97275.09;5032528;28;20292;-87
2021/03/02 05:50:04;;;;;;;4.40;4.00;;;;;;;2.17;100.00;97258.94;5032793;28;20187;-88
2021/03/02 05:52:31;;;;;;;7.50;5.67;;;;;;;2.21;100.00;97247.47;5032896;28;20213;-88
2021/03/02 05:54:59;;;;;;;7.80;6.03;;;;;;;2.10;100.00;97248.91;5032668;28;20222;-87
2021/03/02 05:57:26;;;;;;;8.50;6.73;;;;;;;2.28;100.00;97236.69;5021552;28;20208;-87
2021/03/02 05:59:53;;;;;;;5.83;5.13;;;;;;;2.49;100.00;97258.03;4991218;28;20622;-86
2021/03/02 06:02:22;;;;;;;4.43;3.37;;;;;;;2.69;100.00;97280.28;4992699;28;20278;-86
2021/03/02 06:04:49;;;;;;;4.10;3.60;;;;;;;2.72;100.00;97313.88;4993136;28;20247;-87
2021/03/02 06:07:16;;;;;;;3.60;3.30;;;;;;;2.77;100.00;97336.97;4993747;28;20204;-87
2021/03/02 06:09:44;;;;;;;3.30;3.00;;;;;;;2.93;100.00;97361.16;4993126;28;20211;-87
2021/03/02 06:12:11;;;;;;;6.33;5.13;;;;;;;3.07;100.00;97404.56;4992842;28;20266;-87
2021/03/02 06:14:38;;;;;;;7.37;5.47;;;;;;;3.15;100.00;97396.34;4992872;28;20279;-87
2021/03/02 06:17:06;;;;;;;6.27;4.03;;;;;;;3.14;100.00;97418.88;4992920;28;20202;-87
2021/03/02 06:19:39;;;;;;;3.67;3.23;;;;;;;3.19;100.00;97442.03;4993036;28;20208;-87
2021/03/02 06:22:06;;;;;;;4.37;3.47;;;;;;;3.19;100.00;97448.06;4993140;28;20291;-88
2021/03/02 06:24:40;;;;;;;3.70;3.40;;;;;;;3.47;100.00;97475.97;4993113;28;20196;-87
2021/03/02 06:27:11;;;;;;;4.93;3.50;;;;;;;3.37;100.00;97480.00;4992966;28;20188;-88
2021/03/02 06:29:39;;;;;;;4.13;3.73;;;;;;;3.15;100.00;97482.06;4993015;28;20274;-87
2021/03/02 06:32:07;;;;;;;3.90;3.53;;;;;;;3.12;100.00;97475.31;4992959;28;20200;-87
2021/03/02 06:34:34;;;;;;;4.10;3.67;;;;;;;3.07;100.00;97466.91;4992995;28;20301;-86
2021/03/02 06:37:04;;;;;;;4.67;3.13;;;;;;;3.07;100.00;97456.50;4992790;28;20207;-87
2021/03/02 06:39:34;;;;;;;5.10;4.60;;;;;;;3.15;100.00;97467.31;4992835;28;20788;-87
2021/03/02 06:42:15;;;;;;;5.80;3.83;;;;;;;3.21;100.00;97481.75;4992718;28;20207;-86
2021/03/02 06:44:44;;;;;;;4.47;3.57;;;;;;;3.45;100.00;97497.75;4992698;28;20641;-86
2021/03/02 06:47:12;;;;;;;3.67;3.20;;;;;;;3.36;100.00;97493.91;4992692;28;20731;-87
2021/03/02 06:49:41;;;;;;;5.20;3.97;;;;;;;3.41;100.00;97510.06;4992508;28;20192;-86
2021/03/02 06:52:18;;;;;;;4.53;3.70;;;;;;;3.50;100.00;97538.19;4992713;28;20199;-88
2021/03/02 06:54:46;;;;;;;4.87;4.07;;;;;;;3.24;100.00;97534.38;4993045;28;20243;-89
2021/03/02 06:57:21;;;;;;;4.57;4.10;;;;;;;3.31;100.00;97522.72;4992886;28;20223;-88
2021/03/02 06:59:54;;;;;;;4.13;3.73;;;;;;;3.48;100.00;97532.22;4992812;28;20247;-89
2021/03/02 07:02:39;;;;;;;7.90;5.67;;;;;;;3.52;100.00;97535.47;4993030;28;20270;-88
2021/03/02 07:05:07;;;;;;;6.97;5.60;;;;;;;3.46;100.00;97522.81;4992819;28;20185;-88
2021/03/02 07:07:35;;;;;;;4.53;4.03;;;;;;;3.41;100.00;97524.84;4992696;28;20201;-87
2021/03/02 07:10:03;;;;;;;5.50;4.83;;;;;;;3.19;100.00;97523.41;4992546;28;20263;-88
2021/03/02 07:12:32;;;;;;;6.33;3.80;;;;;;;3.38;100.00;97518.03;4993017;28;20239;-88
2021/03/02 07:15:01;;;;;;;7.57;5.73;;;;;;;3.43;100.00;97516.03;4996028;28;20319;-86
2021/03/02 07:17:28;;;;;;;7.60;5.67;;;;;;;3.61;100.00;97502.97;4996443;28;20291;-88
2021/03/02 07:19:57;;;;;;;6.27;4.60;;;;;;;3.62;100.00;97515.03;4996251;28;20192;-88
2021/03/02 07:22:26;;;;;;;5.97;3.77;;;;;;;3.58;100.00;97514.34;4995536;28;20578;-87
2021/03/02 07:24:56;;;;;;;5.07;3.83;;;;;;;3.50;100.00;97512.19;4995698;28;20752;-89
2021/03/02 07:27:23;;;;;;;10.07;7.37;;;;;;;3.47;100.00;97527.13;4996219;28;20258;-88
2021/03/02 07:29:50;;;;;;;19.97;12.30;;;;;;;3.68;100.00;97505.13;4996236;28;20218;-88
2021/03/02 07:32:19;;;;;;;13.27;8.03;;;;;;;3.72;100.00;97519.63;4996528;28;20592;-88
2021/03/02 07:34:47;;;;;;;11.30;8.10;;;;;;;3.61;100.00;97516.78;4995515;28;20226;-88
2021/03/02 07:37:20;;;;;;;11.57;7.60;;;;;;;3.50;100.00;97508.75;4995822;28;20196;-88
2021/03/02 07:40:02;;;;;;;14.47;8.83;;;;;;;3.48;100.00;97515.78;4995936;28;20313;-87
2021/03/02 07:42:28;;;;;;;13.30;6.63;;;;;;;3.89;100.00;97529.09;4995614;28;20243;-87
2021/03/02 07:45:04;;;;;;;7.67;5.00;;;;;;;3.76;100.00;97536.72;4995642;28;20207;-87
2021/03/02 07:47:47;;;;;;;9.93;7.87;;;;;;;3.75;100.00;97522.06;4995441;28;20239;-87
2021/03/02 07:50:23;;;;;;;25.23;19.93;;;;;;;3.91;100.00;97553.22;4995722;28;20735;-87
2021/03/02 07:53:12;;;;;;;13.80;10.60;;;;;;;3.83;100.00;97541.59;4995455;28;20254;-87
2021/03/02 07:55:39;;;;;;;7.33;6.63;;;;;;;3.86;100.00;97542.25;4995502;28;20200;-87
2021/03/02 07:58:17;;;;;;;5.70;5.20;;;;;;;3.87;100.00;97551.72;4995487;28;20297;-86
2021/03/02 08:00:45;;;;;;;10.03;8.77;;;;;;;3.98;100.00;97556.31;4995506;28;20278;-87
2021/03/02 08:03:22;;;;;;;8.90;7.43;;;;;;;4.00;100.00;97557.91;4995290;28;20235;-87
2021/03/02 08:05:49;;;;;;;11.60;9.20;;;;;;;4.18;100.00;97563.84;4995664;28;20266;-87
2021/03/02 08:08:36;;;;;;;9.30;8.03;;;;;;;4.10;100.00;97567.81;4995142;28;20235;-86
2021/03/02 08:11:31;;;;;;;4.90;4.40;;;;;;;4.01;100.00;97580.41;4995317;28;20184;-87
2021/03/02 08:13:59;;;;;;;5.80;5.20;;;;;;;4.04;100.00;97563.78;4988559;28;20719;-87
2021/03/02 08:16:52;;;;;;;9.83;8.47;;;;;;;4.14;100.00;97564.13;4995141;28;20207;-87
2021/03/02 08:19:37;;;;;;;9.17;8.27;;;;;;;4.16;100.00;97580.50;4995114;28;20683;-87
2021/03/02 08:22:43;;;;;;;6.27;5.67;;;;;;;4.21;100.00;97573.25;4995396;28;20188;-86
2021/03/02 08:25:13;;;;;;;5.43;4.53;;;;;;;4.35;100.00;97591.50;4995072;28;20291;-87
2021/03/02 08:27:45;;;;;;;5.37;4.87;;;;;;;4.31;100.00;97604.81;4995213;28;20204;-87
2021/03/02 08:30:13;;;;;;;4.63;4.17;;;;;;;4.15;100.00;97610.03;4994867;28;20192;-87
2021/03/02 08:32:41;;;;;;;5.37;4.37;;;;;;;4.17;100.00;97589.97;4995129;28;20200;-87
2021/03/02 08:35:10;;;;;;;6.67;5.33;;;;;;;4.17;100.00;97587.38;4994730;28;20236;-87
2021/03/02 08:37:41;;;;;;;5.40;4.83;;;;;;;4.42;100.00;97581.59;4994689;28;20231;-87
2021/03/02 08:40:10;;;;;;;7.23;5.97;;;;;;;4.57;100.00;97595.47;4994659;28;20342;-87
2021/03/02 08:42:38;;;;;;;6.50;5.27;;;;;;;4.38;100.00;97612.16;4994915;28;20193;-87
2021/03/02 08:45:08;;;;;;;7.73;6.47;;;;;;;4.43;100.00;97610.13;4994446;28;20196;-87
2021/03/02 08:47:36;;;;;;;6.73;5.63;;;;;;;4.71;100.00;97605.94;4994550;28;20238;-87
2021/03/02 08:50:03;;;;;;;6.43;5.63;;;;;;;4.59;100.00;97619.69;4994636;28;20200;-88
2021/03/02 08:52:38;;;;;;;7.33;5.83;;;;;;;4.84;100.00;97632.94;4994771;28;20232;-87
2021/03/02 08:55:06;;;;;;;5.53;4.23;;;;;;;5.35;100.00;97645.59;4994589;28;20229;-87
2021/03/02 08:57:44;;;;;;;5.53;4.37;;;;;;;6.13;100.00;97693.84;4994418;28;20212;-88
2021/03/02 09:00:16;;;;;;;5.20;4.03;;;;;;;5.79;100.00;97721.16;4994209;28;20220;-87
2021/03/02 09:02:44;;;;;;;5.80;5.20;;;;;;;5.58;100.00;97718.06;4994378;28;20192;-88
2021/03/02 09:05:17;;;;;;;5.73;4.53;;;;;;;5.56;100.00;97711.25;4994430;28;20205;-88
2021/03/02 09:08:05;;;;;;;4.93;4.30;;;;;;;5.55;100.00;97723.47;4994263;28;20188;-88
2021/03/02 09:10:32;;;;;;;5.80;4.37;;;;;;;5.50;100.00;97741.13;4994256;28;20828;-88
2021/03/02 09:12:59;;;;;;;6.10;4.97;;;;;;;5.39;100.00;97720.91;4994022;28;20780;-88
2021/03/02 09:15:36;;;;;;;5.50;4.70;;;;;;;5.60;100.00;97717.97;4993999;28;20224;-87
2021/03/02 09:18:14;;;;;;;6.07;5.43;;;;;;;5.60;100.00;97721.41;4994400;28;20204;-87
2021/03/02 09:20:49;;;;;;;6.87;5.70;;;;;;;5.73;100.00;97727.56;4994332;28;20235;-87
2021/03/02 09:23:16;;;;;;;6.43;5.70;;;;;;;5.51;100.00;97732.41;4993766;28;20188;-88
2021/03/02 09:25:43;;;;;;;5.87;4.80;;;;;;;5.60;100.00;97733.59;4993904;28;20203;-88
2021/03/02 09:28:15;;;;;;;4.40;4.00;;;;;;;5.51;100.00;97728.94;4994059;28;20196;-88
2021/03/02 09:30:44;;;;;;;5.77;5.17;;;;;;;5.52;100.00;97734.06;4994084;28;20195;-87
2021/03/02 09:33:12;;;;;;;5.20;4.70;;;;;;;5.53;100.00;97733.13;4993986;28;20282;-87
2021/03/02 09:35:39;;;;;;;5.63;5.13;;;;;;;5.72;100.00;97728.50;4993330;28;20200;-87
2021/03/02 09:38:07;;;;;;;5.30;4.80;;;;;;;6.02;100.00;97738.03;4993593;28;20596;-87
2021/03/02 09:40:42;;;;;;;11.53;9.43;;;;;;;6.30;100.00;97739.75;4993624;28;20295;-87
2021/03/02 09:43:09;;;;;;;7.87;5.57;;;;;;;6.39;100.00;97730.53;4993526;28;20720;-87
2021/03/02 09:45:36;;;;;;;8.13;6.20;;;;;;;6.30;100.00;97742.38;4993571;28;20198;-87
2021/03/02 09:48:07;;;;;;;5.97;4.37;;;;;;;7.25;100.00;97775.47;4993473;28;20192;-87
2021/03/02 09:50:38;;;;;;;6.00;5.33;;;;;;;7.45;100.00;97796.84;4993856;28;20204;-87
2021/03/02 09:53:12;;;;;;;5.37;4.87;;;;;;;7.54;100.00;97786.63;4993502;28;20196;-87
2021/03/02 09:55:39;;;;;;;4.93;4.43;;;;;;;8.19;100.00;97785.69;4993439;28;20196;-88
2021/03/02 09:58:10;;;;;;;5.20;4.30;;;;;;;7.97;100.00;97802.06;4993473;28;20246;-87
2021/03/02 10:00:40;;;;;;;5.50;5.00;;;;;;;9.06;100.00;97786.53;4993319;28;20184;-86
2021/03/02 10:03:10;;;;;;;4.10;3.70;;;;;;;9.77;100.00;97811.00;4993196;28;20200;-88
2021/03/02 10:05:40;;;;;;;8.43;5.97;;;;;;;9.57;100.00;97830.03;4993654;28;20581;-88
2021/03/02 10:08:33;;;;;;;5.20;4.70;;;;;;;9.96;100.00;97834.09;4993468;28;20199;-87
2021/03/02 10:11:02;;;;;;;5.23;4.73;;;;;;;9.26;100.00;97825.25;4994047;28;20192;-88
2021/03/02 10:13:33;;;;;;;6.40;4.70;;;;;;;10.10;100.00;97825.16;4993302;28;20270;-88
2021/03/02 10:16:22;;;;;;;5.67;5.17;;;;;;;10.46;100.00;97834.66;4993373;28;20180;-87
2021/03/02 10:18:53;;;;;;;5.60;4.27;;;;;;;10.74;100.00;97840.34;4993208;28;20567;-88
2021/03/02 10:21:21;;;;;;;4.47;4.07;;;;;;;9.81;100.00;97830.00;4993112;28;20189;-87
2021/03/02 10:23:50;;;;;;;4.90;4.10;;;;;;;9.09;100.00;97823.03;4993489;28;20298;-88
2021/03/02 10:26:24;;;;;;;4.80;4.30;;;;;;;9.27;100.00;97821.69;4993138;28;20204;-88
2021/03/02 10:28:52;;;;;;;5.63;4.50;;;;;;;9.22;100.00;97812.50;4993115;28;20191;-88
2021/03/02 10:31:18;;;;;;;7.17;5.40;;;;;;;8.99;100.00;97804.50;4993030;28;20681;-89
2021/03/02 10:33:46;;;;;;;5.00;4.50;;;;;;;8.57;100.00;97795.31;4993252;28;20668;-88
2021/03/02 10:36:19;;;;;;;6.10;4.40;;;;;;;8.24;100.00;97801.94;4992990;28;20196;-89
2021/03/02 10:38:46;;;;;;;7.83;5.97;;;;;;;9.14;100.00;97788.59;4993278;28;20275;-88
2021/03/02 10:41:13;;;;;;;6.10;4.43;;;;;;;8.78;100.00;97785.91;4993232;28;20231;-88
2021/03/02 10:43:40;;;;;;;5.83;4.27;;;;;;;8.67;100.00;97785.84;4992881;28;20263;-87
2021/03/02 10:46:07;;;;;;;4.43;4.03;;;;;;;9.35;100.00;97784.41;4992780;28;20712;-88
2021/03/02 10:48:34;;;;;;;4.73;4.20;;;;;;;9.42;100.00;97787.38;4994576;28;20195;-88
2021/03/02 10:51:01;;;;;;;5.20;4.70;;;;;;;8.41;100.00;97776.34;4997006;28;20239;-88
2021/03/02 10:53:29;;;;;;;5.47;4.27;;;;;;;8.46;100.00;97762.00;4996915;28;20196;-88
2021/03/02 10:55:55;;;;;;;7.40;4.37;;;;;;;8.37;100.00;97757.38;4996621;28;20208;-88
2021/03/02 10:58:24;;;;;;;4.77;4.37;;;;;;;8.57;100.00;97758.63;4996656;28;20239;-89
2021/03/02 11:00:51;;;;;;;4.43;4.03;;;;;;;8.60;100.00;97754.94;4996728;28;20279;-89
2021/03/02 11:03:18;;;;;;;5.07;4.33;;;;;;;8.50;100.00;97752.13;4996635;28;20254;-87
2021/03/02 11:05:45;;;;;;;6.03;5.43;;;;;;;8.37;100.00;97740.81;4996679;28;20207;-87
2021/03/02 11:08:12;;;;;;;4.97;4.47;;;;;;;7.89;100.00;97743.28;4996409;28;20210;-87
2021/03/02 11:10:40;;;;;;;6.63;5.97;;;;;;;7.69;100.00;97735.03;4996453;28;20252;-87
2021/03/02 11:13:07;;;;;;;7.10;6.27;;;;;;;7.71;100.00;97730.53;4996511;28;20735;-86
2021/03/02 11:15:33;;;;;;;7.93;7.13;;;;;;;8.43;100.00;97717.66;4996222;28;20224;-86
2021/03/02 11:18:00;;;;;;;5.30;4.80;;;;;;;10.17;100.00;97735.22;4996367;28;20291;-87
2021/03/02 11:20:27;;;;;;;4.77;4.27;;;;;;;10.21;100.00;97743.69;4996554;28;20231;-87
2021/03/02 11:22:54;;;;;;;4.20;3.70;;;;;;;10.08;100.00;97749.09;4996449;28;20204;-87
2021/03/02 11:25:21;;;;;;;4.13;3.73;;;;;;;9.77;100.00;97745.38;4996186;28;20275;-87
2021/03/02 11:27:51;;;;;;;3.80;3.40;;;;;;;10.22;100.00;97748.84;4996153;28;20204;-87
2021/03/02 11:30:19;;;;;;;4.03;3.10;;;;;;;10.61;100.00;97749.31;4996162;28;20196;-88
2021/03/02 11:32:45;;;;;;;4.47;3.63;;;;;;;11.13;100.00;97742.47;4996016;28;20246;-86
2021/03/02 11:35:13;;;;;;;5.60;5.03;;;;;;;11.65;100.00;97730.22;4995729;28;20274;-87
2021/03/02 11:37:41;;;;;;;6.33;5.43;;;;;;;11.88;100.00;97733.59;4995780;28;20336;-88
2021/03/02 11:40:10;;;;;;;4.30;3.90;;;;;;;11.63;100.00;97731.31;4995859;28;20197;-88
2021/03/02 11:42:38;;;;;;;4.97;4.47;;;;;;;11.59;100.00;97732.53;4995775;28;20200;-88
2021/03/02 11:45:09;;;;;;;5.27;4.77;;;;;;;12.27;100.00;97725.00;4995780;28;20207;-87
2021/03/02 11:47:37;;;;;;;4.60;4.00;;;;;;;11.80;100.00;97712.28;4995646;28;20727;-88